sensor_id;sensor_type;location;lat;lon;timestamp;P1;durP1;ratioP1;P2;durP2;ratioP2
72127;SDS011;60000;51.030;7.024;2024-01-15T00:00:26;25.03;;;8.77;;
72127;SDS011;60000;51.030;7.024;2024-01-15T00:02:52;31.10;;;11.70;;
72127;SDS011;60000;51.030;7.024;2024-01-15T00:05:17;30.53;;;11.53;;
72127;SDS011;60000;51.030;7.024;2024-01-15T00:07:42;28.13;;;10.38;;
72127;SDS011;60000;51.030;7.024;2024-01-15T00:10:08;31.65;;;11.23;;
72127;SDS011;60000;51.030;7.024;2024-01-15T00:12:33;28.43;;;11.23;;
72127;SDS011;60000;51.030;7.024;2024-01-15T00:14:58;27.03;;;10.53;;
72127;SDS011;60000;51.030;7.024;2024-01-15T00:17:24;27.23;;;11.10;;
72127;SDS011;60000;51.030;7.024;2024-01-15T00:19:49;29.43;;;12.17;;
72127;SDS011;60000;51.030;7.024;2024-01-15T00:22:14;30.80;;;10.67;;
72127;SDS011;60000;51.030;7.024;2024-01-15T00:24:40;31.90;;;11.17;;
72127;SDS011;60000;51.030;7.024;2024-01-15T00:27:05;31.23;;;11.73;;
72127;SDS011;60000;51.030;7.024;2024-01-15T00:29:30;28.37;;;10.50;;
72127;SDS011;60000;51.030;7.024;2024-01-15T00:31:55;31.73;;;11.00;;
72127;SDS011;60000;51.030;7.024;2024-01-15T00:34:21;32.30;;;11.43;;
72127;SDS011;60000;51.030;7.024;2024-01-15T00:36:46;28.97;;;10.93;;
72127;SDS011;60000;51.030;7.024;2024-01-15T00:39:11;27.20;;;10.27;;
72127;SDS011;60000;51.030;7.024;2024-01-15T00:41:37;28.87;;;10.00;;
72127;SDS011;60000;51.030;7.024;2024-01-15T00:44:03;28.52;;;10.88;;
72127;SDS011;60000;51.030;7.024;2024-01-15T00:46:28;28.47;;;11.23;;
72127;SDS011;60000;51.030;7.024;2024-01-15T00:48:54;28.93;;;10.63;;
72127;SDS011;60000;51.030;7.024;2024-01-15T00:51:19;30.08;;;11.40;;
72127;SDS011;60000;51.030;7.024;2024-01-15T00:53:45;29.03;;;10.67;;
72127;SDS011;60000;51.030;7.024;2024-01-15T00:56:10;29.53;;;10.87;;
72127;SDS011;60000;51.030;7.024;2024-01-15T00:58:35;29.17;;;10.70;;
72127;SDS011;60000;51.030;7.024;2024-01-15T01:01:01;28.40;;;10.27;;
72127;SDS011;60000;51.030;7.024;2024-01-15T01:03:27;28.75;;;11.27;;
72127;SDS011;60000;51.030;7.024;2024-01-15T01:05:52;32.23;;;10.80;;
72127;SDS011;60000;51.030;7.024;2024-01-15T01:08:17;34.77;;;11.83;;
72127;SDS011;60000;51.030;7.024;2024-01-15T01:10:42;31.57;;;12.23;;
72127;SDS011;60000;51.030;7.024;2024-01-15T01:13:08;32.60;;;12.37;;
72127;SDS011;60000;51.030;7.024;2024-01-15T01:15:34;33.35;;;11.80;;
72127;SDS011;60000;51.030;7.024;2024-01-15T01:17:59;32.90;;;12.93;;
72127;SDS011;60000;51.030;7.024;2024-01-15T01:20:24;30.67;;;11.70;;
72127;SDS011;60000;51.030;7.024;2024-01-15T01:22:50;34.43;;;12.90;;
72127;SDS011;60000;51.030;7.024;2024-01-15T01:25:15;34.60;;;12.63;;
72127;SDS011;60000;51.030;7.024;2024-01-15T01:27:40;28.70;;;11.87;;
72127;SDS011;60000;51.030;7.024;2024-01-15T01:30:06;29.83;;;12.10;;
72127;SDS011;60000;51.030;7.024;2024-01-15T01:32:31;31.73;;;10.48;;
72127;SDS011;60000;51.030;7.024;2024-01-15T01:34:57;29.93;;;12.50;;
72127;SDS011;60000;51.030;7.024;2024-01-15T01:37:22;30.87;;;12.37;;
72127;SDS011;60000;51.030;7.024;2024-01-15T01:39:47;31.87;;;13.23;;
72127;SDS011;60000;51.030;7.024;2024-01-15T01:42:13;29.17;;;11.27;;
72127;SDS011;60000;51.030;7.024;2024-01-15T01:44:38;33.97;;;13.43;;
72127;SDS011;60000;51.030;7.024;2024-01-15T01:47:03;31.60;;;13.03;;
72127;SDS011;60000;51.030;7.024;2024-01-15T01:49:30;32.90;;;13.35;;
72127;SDS011;60000;51.030;7.024;2024-01-15T01:51:56;35.95;;;14.07;;
72127;SDS011;60000;51.030;7.024;2024-01-15T01:54:23;36.87;;;13.83;;
72127;SDS011;60000;51.030;7.024;2024-01-15T01:56:50;30.67;;;13.77;;
72127;SDS011;60000;51.030;7.024;2024-01-15T01:59:16;37.45;;;13.82;;
72127;SDS011;60000;51.030;7.024;2024-01-15T02:01:42;35.80;;;14.50;;
72127;SDS011;60000;51.030;7.024;2024-01-15T02:04:09;31.33;;;12.63;;
72127;SDS011;60000;51.030;7.024;2024-01-15T02:06:35;37.70;;;12.40;;
72127;SDS011;60000;51.030;7.024;2024-01-15T02:09:01;31.50;;;10.50;;
72127;SDS011;60000;51.030;7.024;2024-01-15T02:11:26;31.30;;;11.87;;
72127;SDS011;60000;51.030;7.024;2024-01-15T02:13:51;28.40;;;10.70;;
72127;SDS011;60000;51.030;7.024;2024-01-15T02:16:17;29.05;;;11.05;;
72127;SDS011;60000;51.030;7.024;2024-01-15T02:18:43;28.30;;;10.90;;
72127;SDS011;60000;51.030;7.024;2024-01-15T02:21:09;27.30;;;10.30;;
72127;SDS011;60000;51.030;7.024;2024-01-15T02:23:35;27.50;;;11.48;;
72127;SDS011;60000;51.030;7.024;2024-01-15T02:26:01;31.63;;;10.93;;
72127;SDS011;60000;51.030;7.024;2024-01-15T02:28:26;26.83;;;11.17;;
72127;SDS011;60000;51.030;7.024;2024-01-15T02:30:52;28.73;;;10.40;;
72127;SDS011;60000;51.030;7.024;2024-01-15T02:33:17;25.50;;;9.67;;
72127;SDS011;60000;51.030;7.024;2024-01-15T02:35:42;30.03;;;10.00;;
72127;SDS011;60000;51.030;7.024;2024-01-15T02:38:08;30.80;;;10.25;;
72127;SDS011;60000;51.030;7.024;2024-01-15T02:40:34;26.03;;;9.60;;
72127;SDS011;60000;51.030;7.024;2024-01-15T02:42:59;27.30;;;9.48;;
72127;SDS011;60000;51.030;7.024;2024-01-15T02:45:25;29.27;;;9.80;;
72127;SDS011;60000;51.030;7.024;2024-01-15T02:47:50;25.70;;;9.90;;
72127;SDS011;60000;51.030;7.024;2024-01-15T02:50:16;27.70;;;8.83;;
72127;SDS011;60000;51.030;7.024;2024-01-15T02:52:41;26.77;;;9.83;;
72127;SDS011;60000;51.030;7.024;2024-01-15T02:55:07;25.08;;;9.27;;
72127;SDS011;60000;51.030;7.024;2024-01-15T02:57:33;25.88;;;11.27;;
72127;SDS011;60000;51.030;7.024;2024-01-15T02:59:59;27.53;;;10.37;;
72127;SDS011;60000;51.030;7.024;2024-01-15T03:02:24;31.43;;;10.87;;
72127;SDS011;60000;51.030;7.024;2024-01-15T03:04:49;24.50;;;9.30;;
72127;SDS011;60000;51.030;7.024;2024-01-15T03:07:15;26.43;;;10.50;;
72127;SDS011;60000;51.030;7.024;2024-01-15T03:09:41;24.27;;;9.45;;
72127;SDS011;60000;51.030;7.024;2024-01-15T03:12:06;28.73;;;10.23;;
72127;SDS011;60000;51.030;7.024;2024-01-15T03:14:32;24.55;;;9.95;;
72127;SDS011;60000;51.030;7.024;2024-01-15T03:16:57;24.20;;;9.47;;
72127;SDS011;60000;51.030;7.024;2024-01-15T03:19:22;26.37;;;10.37;;
72127;SDS011;60000;51.030;7.024;2024-01-15T03:21:48;20.80;;;9.20;;
72127;SDS011;60000;51.030;7.024;2024-01-15T03:24:13;21.43;;;8.23;;
72127;SDS011;60000;51.030;7.024;2024-01-15T03:26:39;24.60;;;8.33;;
72127;SDS011;60000;51.030;7.024;2024-01-15T03:29:04;22.48;;;9.13;;
72127;SDS011;60000;51.030;7.024;2024-01-15T03:31:29;20.80;;;8.67;;
72127;SDS011;60000;51.030;7.024;2024-01-15T03:33:55;21.97;;;7.47;;
72127;SDS011;60000;51.030;7.024;2024-01-15T03:36:20;22.27;;;7.78;;
72127;SDS011;60000;51.030;7.024;2024-01-15T03:38:46;24.37;;;7.83;;
72127;SDS011;60000;51.030;7.024;2024-01-15T03:41:11;23.17;;;8.23;;
72127;SDS011;60000;51.030;7.024;2024-01-15T03:43:37;22.23;;;9.63;;
72127;SDS011;60000;51.030;7.024;2024-01-15T03:46:02;22.05;;;9.02;;
72127;SDS011;60000;51.030;7.024;2024-01-15T03:48:29;24.17;;;9.30;;
72127;SDS011;60000;51.030;7.024;2024-01-15T03:50:55;23.05;;;8.80;;
72127;SDS011;60000;51.030;7.024;2024-01-15T03:53:20;28.17;;;10.27;;
72127;SDS011;60000;51.030;7.024;2024-01-15T03:55:45;21.07;;;8.97;;
72127;SDS011;60000;51.030;7.024;2024-01-15T03:58:11;21.40;;;9.47;;
72127;SDS011;60000;51.030;7.024;2024-01-15T04:00:36;23.65;;;9.27;;
72127;SDS011;60000;51.030;7.024;2024-01-15T04:03:02;22.17;;;8.93;;
72127;SDS011;60000;51.030;7.024;2024-01-15T04:05:27;24.23;;;9.70;;
72127;SDS011;60000;51.030;7.024;2024-01-15T04:07:53;21.87;;;9.57;;
72127;SDS011;60000;51.030;7.024;2024-01-15T04:10:18;23.13;;;8.95;;
72127;SDS011;60000;51.030;7.024;2024-01-15T04:12:43;22.35;;;8.82;;
72127;SDS011;60000;51.030;7.024;2024-01-15T04:15:11;23.77;;;9.37;;
72127;SDS011;60000;51.030;7.024;2024-01-15T04:17:37;25.40;;;9.52;;
72127;SDS011;60000;51.030;7.024;2024-01-15T04:20:02;20.30;;;8.90;;
72127;SDS011;60000;51.030;7.024;2024-01-15T04:22:28;24.00;;;9.10;;
72127;SDS011;60000;51.030;7.024;2024-01-15T04:24:53;21.57;;;8.30;;
72127;SDS011;60000;51.030;7.024;2024-01-15T04:27:19;24.30;;;9.03;;
72127;SDS011;60000;51.030;7.024;2024-01-15T04:29:44;22.80;;;8.97;;
72127;SDS011;60000;51.030;7.024;2024-01-15T04:32:09;20.50;;;7.87;;
72127;SDS011;60000;51.030;7.024;2024-01-15T04:34:35;22.10;;;8.75;;
72127;SDS011;60000;51.030;7.024;2024-01-15T04:37:00;22.00;;;8.13;;
72127;SDS011;60000;51.030;7.024;2024-01-15T04:39:25;20.27;;;7.70;;
72127;SDS011;60000;51.030;7.024;2024-01-15T04:41:51;21.63;;;7.90;;
72127;SDS011;60000;51.030;7.024;2024-01-15T04:44:16;20.27;;;8.63;;
72127;SDS011;60000;51.030;7.024;2024-01-15T04:46:41;22.77;;;7.03;;
72127;SDS011;60000;51.030;7.024;2024-01-15T04:49:08;18.63;;;7.40;;
72127;SDS011;60000;51.030;7.024;2024-01-15T04:51:34;21.50;;;7.60;;
72127;SDS011;60000;51.030;7.024;2024-01-15T04:53:59;18.08;;;7.75;;
72127;SDS011;60000;51.030;7.024;2024-01-15T04:56:25;20.98;;;8.05;;
72127;SDS011;60000;51.030;7.024;2024-01-15T04:58:50;18.92;;;7.95;;
72127;SDS011;60000;51.030;7.024;2024-01-15T05:01:15;18.90;;;7.40;;
72127;SDS011;60000;51.030;7.024;2024-01-15T05:03:42;18.27;;;6.47;;
72127;SDS011;60000;51.030;7.024;2024-01-15T05:06:07;19.23;;;7.23;;
72127;SDS011;60000;51.030;7.024;2024-01-15T05:08:32;25.45;;;8.38;;
72127;SDS011;60000;51.030;7.024;2024-01-15T05:10:57;21.57;;;7.73;;
72127;SDS011;60000;51.030;7.024;2024-01-15T05:13:23;17.63;;;6.73;;
72127;SDS011;60000;51.030;7.024;2024-01-15T05:15:48;17.47;;;7.23;;
72127;SDS011;60000;51.030;7.024;2024-01-15T05:18:13;18.37;;;6.93;;
72127;SDS011;60000;51.030;7.024;2024-01-15T05:20:39;18.23;;;7.43;;
72127;SDS011;60000;51.030;7.024;2024-01-15T05:23:04;18.80;;;7.83;;
72127;SDS011;60000;51.030;7.024;2024-01-15T05:25:29;17.37;;;6.87;;
72127;SDS011;60000;51.030;7.024;2024-01-15T05:27:54;16.57;;;6.40;;
72127;SDS011;60000;51.030;7.024;2024-01-15T05:30:20;18.05;;;7.47;;
72127;SDS011;60000;51.030;7.024;2024-01-15T05:32:45;19.87;;;6.23;;
72127;SDS011;60000;51.030;7.024;2024-01-15T05:35:10;19.77;;;7.50;;
72127;SDS011;60000;51.030;7.024;2024-01-15T05:37:36;12.57;;;5.37;;
72127;SDS011;60000;51.030;7.024;2024-01-15T05:40:01;14.90;;;5.63;;
72127;SDS011;60000;51.030;7.024;2024-01-15T05:42:29;16.50;;;6.28;;
72127;SDS011;60000;51.030;7.024;2024-01-15T05:44:55;18.45;;;6.65;;
72127;SDS011;60000;51.030;7.024;2024-01-15T05:47:20;15.73;;;6.17;;
72127;SDS011;60000;51.030;7.024;2024-01-15T05:49:46;18.20;;;6.13;;
72127;SDS011;60000;51.030;7.024;2024-01-15T05:52:11;18.30;;;6.73;;
72127;SDS011;60000;51.030;7.024;2024-01-15T05:54:36;16.40;;;5.70;;
72127;SDS011;60000;51.030;7.024;2024-01-15T05:57:02;17.43;;;6.40;;
72127;SDS011;60000;51.030;7.024;2024-01-15T05:59:27;17.08;;;6.28;;
72127;SDS011;60000;51.030;7.024;2024-01-15T06:01:56;16.80;;;6.07;;
72127;SDS011;60000;51.030;7.024;2024-01-15T06:04:22;15.83;;;6.20;;
72127;SDS011;60000;51.030;7.024;2024-01-15T06:06:47;14.60;;;5.43;;
72127;SDS011;60000;51.030;7.024;2024-01-15T06:09:12;16.17;;;6.73;;
72127;SDS011;60000;51.030;7.024;2024-01-15T06:11:37;17.27;;;5.60;;
72127;SDS011;60000;51.030;7.024;2024-01-15T06:14:03;17.33;;;5.73;;
72127;SDS011;60000;51.030;7.024;2024-01-15T06:16:28;15.43;;;5.93;;
72127;SDS011;60000;51.030;7.024;2024-01-15T06:18:53;15.40;;;5.63;;
72127;SDS011;60000;51.030;7.024;2024-01-15T06:21:19;15.10;;;6.00;;
72127;SDS011;60000;51.030;7.024;2024-01-15T06:23:45;19.25;;;7.15;;
72127;SDS011;60000;51.030;7.024;2024-01-15T06:26:13;18.07;;;7.83;;
72127;SDS011;60000;51.030;7.024;2024-01-15T06:28:39;18.40;;;8.63;;
72127;SDS011;60000;51.030;7.024;2024-01-15T06:31:05;17.77;;;8.40;;
72127;SDS011;60000;51.030;7.024;2024-01-15T06:33:31;19.17;;;8.60;;
72127;SDS011;60000;51.030;7.024;2024-01-15T06:35:57;16.13;;;7.53;;
72127;SDS011;60000;51.030;7.024;2024-01-15T06:38:22;17.43;;;6.93;;
72127;SDS011;60000;51.030;7.024;2024-01-15T06:40:48;14.02;;;5.63;;
72127;SDS011;60000;51.030;7.024;2024-01-15T06:43:16;16.23;;;6.10;;
72127;SDS011;60000;51.030;7.024;2024-01-15T06:45:42;15.18;;;6.47;;
72127;SDS011;60000;51.030;7.024;2024-01-15T06:48:08;15.57;;;6.80;;
72127;SDS011;60000;51.030;7.024;2024-01-15T06:50:33;20.23;;;8.20;;
72127;SDS011;60000;51.030;7.024;2024-01-15T06:52:59;14.40;;;5.93;;
72127;SDS011;60000;51.030;7.024;2024-01-15T06:55:24;12.23;;;5.77;;
72127;SDS011;60000;51.030;7.024;2024-01-15T06:57:50;15.70;;;6.28;;
72127;SDS011;60000;51.030;7.024;2024-01-15T07:00:16;13.25;;;5.80;;
72127;SDS011;60000;51.030;7.024;2024-01-15T07:02:41;17.87;;;6.23;;
72127;SDS011;60000;51.030;7.024;2024-01-15T07:05:07;15.60;;;5.97;;
72127;SDS011;60000;51.030;7.024;2024-01-15T07:07:32;14.67;;;6.10;;
72127;SDS011;60000;51.030;7.024;2024-01-15T07:09:57;12.95;;;5.90;;
72127;SDS011;60000;51.030;7.024;2024-01-15T07:12:23;14.47;;;6.70;;
72127;SDS011;60000;51.030;7.024;2024-01-15T07:14:48;20.23;;;7.67;;
72127;SDS011;60000;51.030;7.024;2024-01-15T07:17:14;17.40;;;7.57;;
72127;SDS011;60000;51.030;7.024;2024-01-15T07:19:39;19.30;;;8.10;;
72127;SDS011;60000;51.030;7.024;2024-01-15T07:22:04;19.47;;;7.80;;
72127;SDS011;60000;51.030;7.024;2024-01-15T07:24:30;21.90;;;10.00;;
72127;SDS011;60000;51.030;7.024;2024-01-15T07:26:55;17.08;;;8.60;;
72127;SDS011;60000;51.030;7.024;2024-01-15T07:29:20;16.10;;;8.10;;
72127;SDS011;60000;51.030;7.024;2024-01-15T07:31:52;18.83;;;7.30;;
72127;SDS011;60000;51.030;7.024;2024-01-15T07:34:18;17.87;;;7.30;;
72127;SDS011;60000;51.030;7.024;2024-01-15T07:36:46;17.38;;;7.90;;
72127;SDS011;60000;51.030;7.024;2024-01-15T07:39:11;16.90;;;7.63;;
72127;SDS011;60000;51.030;7.024;2024-01-15T07:41:37;18.67;;;8.73;;
72127;SDS011;60000;51.030;7.024;2024-01-15T07:44:02;20.67;;;9.13;;
72127;SDS011;60000;51.030;7.024;2024-01-15T07:46:28;21.90;;;8.77;;
72127;SDS011;60000;51.030;7.024;2024-01-15T07:48:53;19.58;;;9.10;;
72127;SDS011;60000;51.030;7.024;2024-01-15T07:51:22;21.80;;;10.73;;
72127;SDS011;60000;51.030;7.024;2024-01-15T07:53:47;20.73;;;9.70;;
72127;SDS011;60000;51.030;7.024;2024-01-15T07:56:13;22.77;;;9.77;;
72127;SDS011;60000;51.030;7.024;2024-01-15T07:58:38;21.30;;;8.87;;
72127;SDS011;60000;51.030;7.024;2024-01-15T08:01:03;20.53;;;8.23;;
72127;SDS011;60000;51.030;7.024;2024-01-15T08:03:29;19.55;;;7.65;;
72127;SDS011;60000;51.030;7.024;2024-01-15T08:05:54;23.03;;;8.43;;
72127;SDS011;60000;51.030;7.024;2024-01-15T08:08:22;24.95;;;10.63;;
72127;SDS011;60000;51.030;7.024;2024-01-15T08:10:48;20.40;;;9.80;;
72127;SDS011;60000;51.030;7.024;2024-01-15T08:13:13;19.50;;;10.15;;
72127;SDS011;60000;51.030;7.024;2024-01-15T08:15:39;23.27;;;9.87;;
72127;SDS011;60000;51.030;7.024;2024-01-15T08:18:04;20.37;;;9.60;;
72127;SDS011;60000;51.030;7.024;2024-01-15T08:20:30;25.00;;;10.07;;
72127;SDS011;60000;51.030;7.024;2024-01-15T08:22:55;20.90;;;9.32;;
72127;SDS011;60000;51.030;7.024;2024-01-15T08:25:21;24.37;;;11.30;;
72127;SDS011;60000;51.030;7.024;2024-01-15T08:27:46;20.80;;;11.20;;
72127;SDS011;60000;51.030;7.024;2024-01-15T08:30:12;24.53;;;10.87;;
72127;SDS011;60000;51.030;7.024;2024-01-15T08:32:37;20.33;;;9.47;;
72127;SDS011;60000;51.030;7.024;2024-01-15T08:35:07;23.33;;;10.52;;
72127;SDS011;60000;51.030;7.024;2024-01-15T08:37:33;21.63;;;9.70;;
72127;SDS011;60000;51.030;7.024;2024-01-15T08:39:58;21.60;;;9.37;;
72127;SDS011;60000;51.030;7.024;2024-01-15T08:42:23;18.83;;;8.63;;
72127;SDS011;60000;51.030;7.024;2024-01-15T08:44:49;18.05;;;7.10;;
72127;SDS011;60000;51.030;7.024;2024-01-15T08:47:15;21.97;;;9.07;;
72127;SDS011;60000;51.030;7.024;2024-01-15T08:49:41;21.92;;;8.10;;
72127;SDS011;60000;51.030;7.024;2024-01-15T08:52:08;19.40;;;8.35;;
72127;SDS011;60000;51.030;7.024;2024-01-15T08:54:33;18.10;;;8.47;;
72127;SDS011;60000;51.030;7.024;2024-01-15T08:56:58;19.97;;;7.70;;
72127;SDS011;60000;51.030;7.024;2024-01-15T08:59:24;18.42;;;8.38;;
72127;SDS011;60000;51.030;7.024;2024-01-15T09:01:51;23.05;;;8.30;;
72127;SDS011;60000;51.030;7.024;2024-01-15T09:04:19;18.70;;;8.37;;
72127;SDS011;60000;51.030;7.024;2024-01-15T09:06:45;21.23;;;9.30;;
72127;SDS011;60000;51.030;7.024;2024-01-15T09:09:12;21.77;;;9.70;;
72127;SDS011;60000;51.030;7.024;2024-01-15T09:11:38;18.93;;;8.27;;
72127;SDS011;60000;51.030;7.024;2024-01-15T09:14:04;22.83;;;9.25;;
72127;SDS011;60000;51.030;7.024;2024-01-15T09:16:29;23.77;;;10.60;;
72127;SDS011;60000;51.030;7.024;2024-01-15T09:18:55;23.20;;;9.57;;
72127;SDS011;60000;51.030;7.024;2024-01-15T09:21:22;19.17;;;9.52;;
72127;SDS011;60000;51.030;7.024;2024-01-15T09:23:47;20.63;;;8.57;;
72127;SDS011;60000;51.030;7.024;2024-01-15T09:26:13;17.77;;;7.57;;
72127;SDS011;60000;51.030;7.024;2024-01-15T09:28:38;16.20;;;7.47;;
72127;SDS011;60000;51.030;7.024;2024-01-15T09:31:03;17.43;;;7.63;;
72127;SDS011;60000;51.030;7.024;2024-01-15T09:33:29;16.00;;;7.33;;
72127;SDS011;60000;51.030;7.024;2024-01-15T09:35:54;15.33;;;6.83;;
72127;SDS011;60000;51.030;7.024;2024-01-15T09:38:20;15.18;;;6.63;;
72127;SDS011;60000;51.030;7.024;2024-01-15T09:40:45;15.77;;;7.00;;
72127;SDS011;60000;51.030;7.024;2024-01-15T09:43:12;15.77;;;6.90;;
72127;SDS011;60000;51.030;7.024;2024-01-15T09:45:39;13.30;;;6.97;;
72127;SDS011;60000;51.030;7.024;2024-01-15T09:48:05;14.35;;;6.18;;
72127;SDS011;60000;51.030;7.024;2024-01-15T09:50:30;14.25;;;6.35;;
72127;SDS011;60000;51.030;7.024;2024-01-15T09:52:56;12.97;;;6.33;;
72127;SDS011;60000;51.030;7.024;2024-01-15T09:55:22;10.30;;;4.90;;
72127;SDS011;60000;51.030;7.024;2024-01-15T09:57:47;12.10;;;5.53;;
72127;SDS011;60000;51.030;7.024;2024-01-15T10:00:14;11.93;;;4.97;;
72127;SDS011;60000;51.030;7.024;2024-01-15T10:02:42;13.20;;;5.35;;
72127;SDS011;60000;51.030;7.024;2024-01-15T10:05:08;12.13;;;5.50;;
72127;SDS011;60000;51.030;7.024;2024-01-15T10:07:34;12.33;;;5.07;;
72127;SDS011;60000;51.030;7.024;2024-01-15T10:10:02;9.93;;;5.25;;
72127;SDS011;60000;51.030;7.024;2024-01-15T10:12:28;11.77;;;4.37;;
72127;SDS011;60000;51.030;7.024;2024-01-15T10:14:54;10.07;;;4.40;;
72127;SDS011;60000;51.030;7.024;2024-01-15T10:17:21;9.40;;;3.95;;
72127;SDS011;60000;51.030;7.024;2024-01-15T10:19:46;9.50;;;3.90;;
72127;SDS011;60000;51.030;7.024;2024-01-15T10:22:13;7.87;;;3.77;;
72127;SDS011;60000;51.030;7.024;2024-01-15T10:24:40;12.77;;;4.85;;
72127;SDS011;60000;51.030;7.024;2024-01-15T10:27:06;10.18;;;4.80;;
72127;SDS011;60000;51.030;7.024;2024-01-15T10:29:33;9.90;;;4.10;;
72127;SDS011;60000;51.030;7.024;2024-01-15T10:31:58;8.80;;;4.18;;
72127;SDS011;60000;51.030;7.024;2024-01-15T10:34:24;9.27;;;4.20;;
72127;SDS011;60000;51.030;7.024;2024-01-15T10:36:50;10.30;;;4.32;;
72127;SDS011;60000;51.030;7.024;2024-01-15T10:39:20;9.57;;;3.50;;
72127;SDS011;60000;51.030;7.024;2024-01-15T10:41:46;8.40;;;3.70;;
72127;SDS011;60000;51.030;7.024;2024-01-15T10:44:11;10.67;;;4.10;;
72127;SDS011;60000;51.030;7.024;2024-01-15T10:46:37;9.13;;;3.63;;
72127;SDS011;60000;51.030;7.024;2024-01-15T10:49:02;8.17;;;3.70;;
72127;SDS011;60000;51.030;7.024;2024-01-15T10:51:29;8.45;;;3.42;;
72127;SDS011;60000;51.030;7.024;2024-01-15T10:53:54;8.70;;;3.57;;
72127;SDS011;60000;51.030;7.024;2024-01-15T10:56:22;6.85;;;2.47;;
72127;SDS011;60000;51.030;7.024;2024-01-15T10:58:48;7.15;;;2.53;;
72127;SDS011;60000;51.030;7.024;2024-01-15T11:01:15;7.57;;;2.80;;
72127;SDS011;60000;51.030;7.024;2024-01-15T11:03:42;5.83;;;2.30;;
72127;SDS011;60000;51.030;7.024;2024-01-15T11:06:18;8.98;;;3.15;;
72127;SDS011;60000;51.030;7.024;2024-01-15T11:08:50;7.60;;;2.80;;
72127;SDS011;60000;51.030;7.024;2024-01-15T11:11:17;6.53;;;2.50;;
72127;SDS011;60000;51.030;7.024;2024-01-15T11:13:43;6.00;;;2.50;;
72127;SDS011;60000;51.030;7.024;2024-01-15T11:16:12;6.13;;;2.40;;
72127;SDS011;60000;51.030;7.024;2024-01-15T11:18:42;6.22;;;1.95;;
72127;SDS011;60000;51.030;7.024;2024-01-15T11:21:34;5.82;;;2.08;;
72127;SDS011;60000;51.030;7.024;2024-01-15T11:24:07;5.13;;;1.90;;
72127;SDS011;60000;51.030;7.024;2024-01-15T11:29:05;6.23;;;2.20;;
72127;SDS011;60000;51.030;7.024;2024-01-15T11:34:06;5.72;;;1.73;;
72127;SDS011;60000;51.030;7.024;2024-01-15T11:41:57;4.43;;;1.58;;
72127;SDS011;60000;51.030;7.024;2024-01-15T11:44:24;3.40;;;1.50;;
72127;SDS011;60000;51.030;7.024;2024-01-15T11:52:12;4.45;;;1.60;;
72127;SDS011;60000;51.030;7.024;2024-01-15T11:54:41;5.25;;;2.15;;
72127;SDS011;60000;51.030;7.024;2024-01-15T11:57:41;7.20;;;2.00;;
72127;SDS011;60000;51.030;7.024;2024-01-15T12:00:09;5.28;;;2.00;;
72127;SDS011;60000;51.030;7.024;2024-01-15T12:02:36;5.70;;;1.80;;
72127;SDS011;60000;51.030;7.024;2024-01-15T12:05:03;5.43;;;1.98;;
72127;SDS011;60000;51.030;7.024;2024-01-15T12:07:28;5.33;;;1.97;;
72127;SDS011;60000;51.030;7.024;2024-01-15T12:09:54;5.70;;;2.23;;
72127;SDS011;60000;51.030;7.024;2024-01-15T12:12:22;6.97;;;2.05;;
72127;SDS011;60000;51.030;7.024;2024-01-15T12:14:51;6.65;;;2.22;;
72127;SDS011;60000;51.030;7.024;2024-01-15T12:17:17;8.80;;;2.90;;
72127;SDS011;60000;51.030;7.024;2024-01-15T12:19:43;7.50;;;2.75;;
72127;SDS011;60000;51.030;7.024;2024-01-15T12:22:08;6.40;;;2.77;;
72127;SDS011;60000;51.030;7.024;2024-01-15T12:24:34;8.38;;;3.42;;
72127;SDS011;60000;51.030;7.024;2024-01-15T12:27:00;9.93;;;3.53;;
72127;SDS011;60000;51.030;7.024;2024-01-15T12:29:25;9.10;;;3.57;;
72127;SDS011;60000;51.030;7.024;2024-01-15T12:31:51;9.93;;;3.97;;
72127;SDS011;60000;51.030;7.024;2024-01-15T12:34:18;10.48;;;4.00;;
72127;SDS011;60000;51.030;7.024;2024-01-15T12:36:43;8.03;;;4.10;;
72127;SDS011;60000;51.030;7.024;2024-01-15T12:39:11;7.88;;;3.47;;
72127;SDS011;60000;51.030;7.024;2024-01-15T12:41:37;9.30;;;3.47;;
72127;SDS011;60000;51.030;7.024;2024-01-15T12:44:03;12.13;;;4.10;;
72127;SDS011;60000;51.030;7.024;2024-01-15T12:46:30;8.18;;;3.50;;
72127;SDS011;60000;51.030;7.024;2024-01-15T12:48:57;9.27;;;3.90;;
72127;SDS011;60000;51.030;7.024;2024-01-15T12:51:25;13.75;;;3.97;;
72127;SDS011;60000;51.030;7.024;2024-01-15T12:53:51;10.32;;;3.40;;
72127;SDS011;60000;51.030;7.024;2024-01-15T12:56:17;7.15;;;2.92;;
72127;SDS011;60000;51.030;7.024;2024-01-15T12:58:43;8.57;;;3.80;;
72127;SDS011;60000;51.030;7.024;2024-01-15T13:01:08;7.80;;;3.53;;
72127;SDS011;60000;51.030;7.024;2024-01-15T13:03:34;9.13;;;3.30;;
72127;SDS011;60000;51.030;7.024;2024-01-15T13:05:59;10.60;;;3.53;;
72127;SDS011;60000;51.030;7.024;2024-01-15T13:08:25;17.27;;;4.33;;
72127;SDS011;60000;51.030;7.024;2024-01-15T13:10:52;8.23;;;3.13;;
72127;SDS011;60000;51.030;7.024;2024-01-15T13:13:21;7.57;;;2.60;;
72127;SDS011;60000;51.030;7.024;2024-01-15T13:15:46;9.57;;;2.55;;
72127;SDS011;60000;51.030;7.024;2024-01-15T13:18:12;10.37;;;2.83;;
72127;SDS011;60000;51.030;7.024;2024-01-15T13:20:37;8.50;;;2.63;;
72127;SDS011;60000;51.030;7.024;2024-01-15T13:23:03;9.57;;;2.77;;
72127;SDS011;60000;51.030;7.024;2024-01-15T13:25:29;6.72;;;2.40;;
72127;SDS011;60000;51.030;7.024;2024-01-15T13:27:54;7.05;;;2.58;;
72127;SDS011;60000;51.030;7.024;2024-01-15T13:30:19;6.47;;;2.30;;
72127;SDS011;60000;51.030;7.024;2024-01-15T13:32:45;12.03;;;2.40;;
72127;SDS011;60000;51.030;7.024;2024-01-15T13:35:10;15.93;;;2.63;;
72127;SDS011;60000;51.030;7.024;2024-01-15T13:37:38;7.40;;;2.40;;
72127;SDS011;60000;51.030;7.024;2024-01-15T13:40:06;9.15;;;2.28;;
72127;SDS011;60000;51.030;7.024;2024-01-15T13:42:34;5.15;;;2.05;;
72127;SDS011;60000;51.030;7.024;2024-01-15T13:44:59;8.40;;;2.23;;
72127;SDS011;60000;51.030;7.024;2024-01-15T13:47:25;5.33;;;1.53;;
72127;SDS011;60000;51.030;7.024;2024-01-15T13:49:50;5.43;;;1.80;;
72127;SDS011;60000;51.030;7.024;2024-01-15T13:52:15;7.50;;;1.75;;
72127;SDS011;60000;51.030;7.024;2024-01-15T13:54:41;6.03;;;1.85;;
72127;SDS011;60000;51.030;7.024;2024-01-15T13:57:07;6.43;;;1.60;;
72127;SDS011;60000;51.030;7.024;2024-01-15T13:59:32;8.70;;;2.27;;
72127;SDS011;60000;51.030;7.024;2024-01-15T14:01:58;5.00;;;1.75;;
72127;SDS011;60000;51.030;7.024;2024-01-15T14:04:23;7.47;;;1.90;;
72127;SDS011;60000;51.030;7.024;2024-01-15T14:06:48;6.93;;;1.70;;
72127;SDS011;60000;51.030;7.024;2024-01-15T14:09:13;6.00;;;1.87;;
72127;SDS011;60000;51.030;7.024;2024-01-15T14:11:39;6.27;;;1.83;;
72127;SDS011;60000;51.030;7.024;2024-01-15T14:14:05;5.22;;;1.88;;
72127;SDS011;60000;51.030;7.024;2024-01-15T14:16:30;6.20;;;1.90;;
72127;SDS011;60000;51.030;7.024;2024-01-15T14:18:55;4.97;;;1.60;;
72127;SDS011;60000;51.030;7.024;2024-01-15T14:21:21;6.33;;;1.77;;
72127;SDS011;60000;51.030;7.024;2024-01-15T14:23:46;6.37;;;1.90;;
72127;SDS011;60000;51.030;7.024;2024-01-15T14:26:12;5.57;;;1.90;;
72127;SDS011;60000;51.030;7.024;2024-01-15T14:28:37;5.10;;;1.67;;
72127;SDS011;60000;51.030;7.024;2024-01-15T14:31:03;5.18;;;1.90;;
72127;SDS011;60000;51.030;7.024;2024-01-15T14:33:30;4.80;;;1.80;;
72127;SDS011;60000;51.030;7.024;2024-01-15T14:35:56;7.65;;;2.10;;
72127;SDS011;60000;51.030;7.024;2024-01-15T14:38:22;5.20;;;1.90;;
72127;SDS011;60000;51.030;7.024;2024-01-15T14:40:48;5.18;;;1.70;;
72127;SDS011;60000;51.030;7.024;2024-01-15T14:43:14;7.13;;;2.35;;